.
WxDataArchive / Data Records for 2011-09-09
2011-09-08 September 2011 2011-09-10

Data Records for Friday, 09 September 2011

Time	Temp	Chill	HIndex	Humid	Dewpt	 Wind 	HiWind	WindDir	Rain 	Barom 
-----	----	-----	------	-----	-----	------	------	-------	-----	----- 
00:00	64.0	64.0	64.0	96	62.8	2	4	112	0.00	29.936 
00:05	64.0	64.0	64.0	96	62.8	1	6	90	0.00	29.936 
00:10	63.9	63.9	63.9	96	62.7	0	2	90	0.00	29.936 
00:15	63.9	63.9	63.9	96	62.7	1	4	112	0.00	29.935 
00:20	63.9	63.9	63.9	96	62.7	1	3	112	0.00	29.935 
00:25	63.9	63.9	63.9	96	62.7	1	3	112	0.00	29.935 
00:30	63.7	63.7	63.7	96	62.5	0	2	112	0.00	29.936 
00:35	63.7	63.7	63.7	96	62.5	0	3	112	0.00	29.936 
00:40	63.7	63.7	63.7	96	62.5	0	4	112	0.00	29.936 
00:45	63.7	63.7	63.7	96	62.5	1	4	112	0.00	29.935 
00:50	63.5	63.5	63.5	96	62.3	0	1	112	0.00	29.935 
00:55	63.5	63.5	63.5	96	62.3	0	2	112	0.00	29.935 
01:00	63.5	63.5	63.5	96	62.3	0	2	112	0.00	29.934 
01:05	63.5	63.5	63.5	96	62.3	0	3	112	0.00	29.934 
01:10	63.4	63.4	63.4	96	62.2	1	4	112	0.00	29.934 
01:15	63.4	63.4	63.4	96	62.2	1	4	112	0.00	29.933 
01:20	63.4	63.4	63.4	96	62.2	0	1	112	0.00	29.933 
01:25	63.4	63.4	63.4	96	62.2	0	0	---	0.00	29.933 
01:30	63.2	63.2	63.2	96	62.0	0	0	---	0.00	29.932 
01:35	63.2	63.2	63.2	96	62.0	0	0	---	0.00	29.932 
01:40	63.2	63.2	63.2	96	62.0	0	0	---	0.00	29.932 
01:45	63.1	63.1	63.1	96	61.9	0	0	---	0.00	29.929 
01:50	63.1	63.1	63.1	96	61.9	0	0	---	0.00	29.929 
01:55	63.1	63.1	63.1	96	61.9	0	0	---	0.00	29.929 
02:00	63.2	63.2	63.2	96	62.0	0	3	112	0.00	29.926 
02:05	63.2	63.2	63.2	96	62.0	0	0	---	0.00	29.926 
02:10	63.2	63.2	63.2	96	62.0	0	1	112	0.00	29.926 
02:15	63.2	63.2	63.2	96	62.0	0	1	112	0.00	29.922 
02:20	63.2	63.2	63.2	96	62.0	0	2	112	0.00	29.922 
02:25	63.2	63.2	63.2	96	62.0	0	2	112	0.00	29.922 
02:30	63.2	63.2	63.2	96	62.0	0	0	---	0.00	29.920 
02:35	63.2	63.2	63.2	96	62.0	0	1	112	0.00	29.920 
02:40	63.2	63.2	63.2	96	62.0	0	0	---	0.00	29.920 
02:45	63.2	63.2	63.2	96	62.0	0	0	---	0.00	29.919 
02:50	63.2	63.2	63.2	96	62.0	0	0	---	0.00	29.919 
02:55	63.2	63.2	63.2	96	62.0	0	0	---	0.00	29.919 
03:00	63.2	63.2	63.2	96	62.0	0	0	---	0.00	29.917 
03:05	63.2	63.2	63.2	96	62.0	0	0	---	0.00	29.917 
03:10	63.2	63.2	63.2	96	62.0	0	0	---	0.00	29.917 
03:15	63.2	63.2	63.2	96	62.0	0	0	---	0.00	29.916 
03:20	63.2	63.2	63.2	96	62.0	0	1	112	0.00	29.916 
03:25	63.2	63.2	63.2	96	62.0	0	1	112	0.00	29.916 
03:30	63.2	63.2	63.2	96	62.0	0	1	112	0.00	29.913 
03:35	63.2	63.2	63.2	96	62.0	0	1	112	0.00	29.913 
03:40	63.2	63.2	63.2	96	62.0	0	2	112	0.00	29.913 
03:45	63.2	63.2	63.2	96	62.0	0	0	---	0.00	29.908 
03:50	63.2	63.2	63.2	96	62.0	0	0	---	0.00	29.908 
03:55	63.2	63.2	63.2	96	62.0	0	1	112	0.00	29.908 
04:00	63.4	63.4	63.4	96	62.2	0	2	112	0.00	29.910 
04:05	63.4	63.4	63.4	96	62.2	0	1	112	0.00	29.910 
04:10	63.4	63.4	63.4	96	62.2	0	2	112	0.00	29.910 
04:15	63.4	63.4	63.4	96	62.2	0	1	112	0.00	29.911 
04:20	63.4	63.4	63.4	96	62.2	0	1	112	0.00	29.911 
04:25	63.4	63.4	63.4	96	62.2	0	1	112	0.00	29.911 
04:30	63.4	63.4	63.4	96	62.2	0	1	112	0.00	29.914 
04:35	63.5	63.5	63.5	96	62.3	0	1	112	0.00	29.914 
04:40	63.4	63.4	63.4	96	62.2	0	2	112	0.00	29.914 
04:45	63.4	63.4	63.4	96	62.2	0	1	112	0.00	29.909 
04:50	63.4	63.4	63.4	96	62.2	0	1	112	0.00	29.909 
04:55	63.4	63.4	63.4	96	62.2	0	1	112	0.00	29.909 
05:00	63.2	63.2	63.2	96	62.0	0	0	---	0.00	29.910 
05:05	63.2	63.2	63.2	96	62.0	0	0	---	0.00	29.910 
05:10	63.2	63.2	63.2	96	62.0	0	1	112	0.00	29.910 
05:15	63.1	63.1	63.1	96	61.9	0	0	---	0.00	29.909 
05:20	63.1	63.1	63.1	96	61.9	0	0	---	0.00	29.909 
05:25	62.9	62.9	62.9	96	61.7	0	0	---	0.00	29.909 
05:30	62.9	62.9	62.9	96	61.7	0	0	---	0.00	29.904 
05:35	62.9	62.9	62.9	96	61.7	0	0	---	0.00	29.904 
05:40	62.7	62.7	62.7	96	61.5	0	0	---	0.00	29.904 
05:45	62.7	62.7	62.7	96	61.5	0	0	---	0.00	29.904 
05:50	62.7	62.7	62.7	96	61.5	0	0	---	0.00	29.904 
05:55	62.7	62.7	62.7	96	61.5	0	0	---	0.00	29.904 
06:00	62.7	62.7	62.7	96	61.5	0	0	---	0.00	29.909 
06:05	62.7	62.7	62.7	96	61.5	0	0	---	0.00	29.909 
06:10	62.7	62.7	62.7	96	61.5	0	0	---	0.00	29.909 
06:15	62.6	62.6	62.6	96	61.4	0	0	---	0.00	29.908 
06:20	62.6	62.6	62.6	96	61.4	0	0	---	0.00	29.908 
06:25	62.6	62.6	62.6	96	61.4	0	0	---	0.00	29.908 
06:30	62.6	62.6	62.6	96	61.4	0	0	---	0.00	29.910 
06:35	62.6	62.6	62.6	96	61.4	0	0	---	0.00	29.910 
06:40	62.6	62.6	62.6	96	61.4	0	0	---	0.00	29.910 
06:45	62.6	62.6	62.6	96	61.4	0	0	---	0.00	29.912 
06:50	62.6	62.6	62.6	96	61.4	0	0	---	0.00	29.912 
06:55	62.6	62.6	62.6	96	61.4	0	0	---	0.00	29.912 
07:00	62.4	62.4	62.4	96	61.2	0	0	---	0.00	29.914 
07:05	62.4	62.4	62.4	96	61.2	0	0	---	0.00	29.914 
07:10	62.4	62.4	62.4	96	61.2	0	0	---	0.00	29.914 
07:15	62.4	62.4	62.4	96	61.2	0	0	---	0.00	29.917 
07:20	62.4	62.4	62.4	96	61.2	0	0	---	0.00	29.917 
07:25	62.4	62.4	62.4	96	61.2	0	0	---	0.00	29.917 
07:30	62.4	62.4	62.4	96	61.2	0	0	---	0.00	29.917 
07:35	62.3	62.3	62.3	96	61.1	0	0	---	0.00	29.917 
07:40	62.3	62.3	62.3	96	61.1	0	0	---	0.00	29.917 
07:45	62.3	62.3	62.3	96	61.1	0	0	---	0.00	29.916 
07:50	62.3	62.3	62.3	96	61.1	0	0	---	0.00	29.916 
07:55	62.1	62.1	62.1	96	60.9	0	0	---	0.00	29.916 
08:00	62.3	62.3	62.3	96	61.1	0	0	---	0.00	29.918 
08:05	62.3	62.3	62.3	96	61.1	0	0	---	0.00	29.918 
08:10	62.4	62.4	62.4	97	61.5	0	0	---	0.00	29.918 
08:15	62.4	62.4	62.4	97	61.5	0	0	---	0.00	29.919 
08:20	62.4	62.4	62.4	96	61.2	0	0	---	0.00	29.919 
08:25	62.4	62.4	62.4	96	61.2	0	0	---	0.00	29.919 
08:30	62.4	62.4	62.4	96	61.2	0	2	112	0.00	29.922 
08:35	62.4	62.4	62.4	96	61.2	0	0	---	0.00	29.922 
08:40	62.4	62.4	62.4	96	61.2	0	1	112	0.00	29.922 
08:45	62.4	62.4	62.4	96	61.2	0	0	---	0.00	29.925 
08:50	62.4	62.4	62.4	96	61.2	0	0	---	0.00	29.925 
08:55	62.4	62.4	62.4	96	61.2	0	0	---	0.00	29.925 
09:00	62.4	62.4	62.4	96	61.2	0	0	---	0.00	29.925 
09:05	62.4	62.4	62.4	96	61.2	0	0	---	0.00	29.925 
09:10	62.4	62.4	62.4	96	61.2	0	0	---	0.00	29.925 
09:15	62.4	62.4	62.4	96	61.2	0	0	---	0.00	29.930 
09:20	62.6	62.6	62.6	96	61.4	0	0	---	0.00	29.930 
09:25	62.7	62.7	62.7	96	61.5	0	1	112	0.00	29.930 
09:30	62.9	62.9	62.9	96	61.7	0	1	112	0.00	29.933 
09:35	63.1	63.1	63.1	96	61.9	0	0	---	0.00	29.933 
09:40	63.1	63.1	63.1	96	61.9	0	0	---	0.00	29.933 
09:45	63.4	63.4	63.4	96	62.2	0	1	112	0.00	29.932 
09:50	63.4	63.4	63.4	96	62.2	0	1	112	0.00	29.932 
09:55	63.5	63.5	63.5	96	62.3	0	0	---	0.00	29.932 
10:00	63.7	63.7	63.7	95	62.2	0	1	112	0.00	29.932 
10:05	63.7	63.7	63.7	95	62.2	0	2	112	0.00	29.932 
10:10	63.7	63.7	63.7	94	61.9	0	2	112	0.00	29.932 
10:15	63.7	63.7	63.7	94	61.9	0	2	112	0.00	29.934 
10:20	63.7	63.7	63.7	93	61.6	0	3	112	0.00	29.934 
10:25	63.7	63.7	63.7	93	61.6	0	1	112	0.00	29.934 
10:30	63.9	63.9	63.9	92	61.5	0	2	112	0.00	29.938 
10:35	64.0	64.0	64.0	92	61.6	0	3	112	0.00	29.938 
10:40	64.2	64.2	64.2	91	61.5	0	2	112	0.00	29.938 
10:45	64.3	64.3	64.3	91	61.6	0	1	112	0.00	29.944 
10:50	64.7	64.7	64.7	91	62.0	0	1	112	0.00	29.944 
10:55	64.8	64.8	64.8	90	61.8	0	1	112	0.00	29.944 
11:00	65.2	65.2	65.2	89	61.9	0	1	112	0.00	29.945 
11:05	65.5	65.5	65.5	88	61.8	0	2	112	0.00	29.945 
11:10	66.1	66.1	66.1	86	61.8	0	2	112	0.00	29.945 
11:15	66.6	66.6	66.6	84	61.6	1	3	112	0.00	29.945 
11:20	67.1	67.1	67.1	81	61.1	0	2	112	0.00	29.945 
11:25	67.4	67.4	67.4	81	61.4	1	3	135	0.00	29.945 
11:30	67.6	67.6	67.6	80	61.2	1	3	90	0.00	29.944 
11:35	67.9	67.9	67.9	79	61.1	1	4	135	0.00	29.944 
11:40	67.8	67.8	67.8	78	60.7	1	4	90	0.00	29.944 
11:45	67.8	67.8	67.8	79	61.0	0	2	90	0.00	29.945 
11:50	67.9	67.9	67.9	79	61.1	0	1	90	0.00	29.945 
11:55	67.9	67.9	67.9	76	60.0	1	4	68	0.00	29.945 
12:00	68.1	68.1	68.1	77	60.6	0	1	68	0.00	29.947 
12:05	68.3	68.3	68.3	77	60.8	0	3	68	0.00	29.947 
12:10	68.3	68.3	68.3	75	60.1	0	3	68	0.00	29.947 
12:15	68.4	68.4	68.4	76	60.5	1	3	68	0.00	29.947 
12:20	68.4	68.4	68.4	75	60.2	0	2	68	0.00	29.947 
12:25	68.4	68.4	68.4	73	59.4	1	3	68	0.00	29.947 
12:30	68.6	68.6	68.6	73	59.6	0	3	90	0.00	29.950 
12:35	68.8	68.8	68.8	72	59.4	0	4	112	0.00	29.950 
12:40	68.9	68.9	68.9	73	59.9	0	3	112	0.00	29.950 
12:45	69.1	69.1	69.1	73	60.1	0	0	---	0.00	29.946 
12:50	69.1	69.1	69.1	72	59.7	0	1	112	0.00	29.946 
12:55	69.3	69.3	69.3	72	59.9	1	4	112	0.00	29.946 
13:00	69.4	69.4	69.4	71	59.6	1	4	112	0.00	29.943 
13:05	69.9	69.9	69.9	71	60.1	1	2	112	0.00	29.943 
13:10	70.6	70.6	70.6	71	60.7	1	4	112	0.00	29.943 
13:15	71.1	71.1	71.1	68	60.0	0	3	112	0.00	29.936 
13:20	71.3	71.3	71.3	70	61.0	1	3	112	0.00	29.936 
13:25	71.3	71.3	71.3	69	60.6	1	3	112	0.00	29.936 
13:30	71.8	71.8	71.8	71	61.9	0	2	112	0.00	29.929 
13:35	72.7	72.7	72.7	67	61.1	0	2	112	0.00	29.929 
13:40	72.8	72.8	72.8	65	60.3	1	3	112	0.00	29.929 
13:45	72.7	72.7	72.7	67	61.1	0	2	112	0.00	29.928 
13:50	72.1	72.1	72.1	68	60.9	1	3	112	0.00	29.928 
13:55	71.5	71.5	71.5	68	60.4	2	5	68	0.00	29.928 
14:00	71.1	71.1	71.1	70	60.8	1	2	68	0.00	29.928 
14:05	70.8	70.8	70.8	69	60.1	2	4	68	0.00	29.928 
14:10	70.6	70.6	70.6	68	59.5	1	5	68	0.00	29.928 
14:15	70.4	70.4	70.4	69	59.7	1	3	68	0.00	29.928 
14:20	70.4	70.4	70.4	70	60.1	1	4	68	0.00	29.928 
14:25	70.3	70.3	70.3	68	59.2	0	2	68	0.00	29.928 
14:30	70.8	70.8	70.8	70	60.5	0	2	68	0.00	29.925 
14:35	71.6	71.6	71.6	67	60.0	1	4	68	0.00	29.925 
14:40	72.5	72.5	72.5	66	60.5	1	4	68	0.00	29.925 
14:45	72.7	72.7	72.7	64	59.8	1	5	90	0.00	29.921 
14:50	72.7	72.7	72.7	64	59.8	1	4	90	0.00	29.921 
14:55	73.2	73.2	73.2	64	60.3	1	3	112	0.00	29.921 
15:00	73.9	73.9	73.9	63	60.5	1	5	135	0.00	29.916 
15:05	73.3	73.3	73.3	63	59.9	2	6	90	0.00	29.916 
15:10	73.0	73.0	73.0	65	60.5	1	3	90	0.00	29.916 
15:15	72.7	72.7	72.7	65	60.2	1	3	90	0.00	29.913 
15:20	72.3	72.3	72.3	66	60.3	1	4	112	0.00	29.913 
15:25	72.7	72.7	72.7	66	60.7	1	4	68	0.00	29.913 
15:30	73.2	73.2	73.2	66	61.1	1	5	112	0.00	29.911 
15:35	73.5	73.5	73.5	62	59.7	1	3	90	0.00	29.911 
15:40	73.7	73.7	73.7	61	59.4	1	3	112	0.00	29.911 
15:45	73.7	73.7	73.7	61	59.4	1	4	90	0.00	29.910 
15:50	73.5	73.5	73.5	63	60.1	1	3	90	0.00	29.910 
15:55	73.2	73.2	73.2	63	59.8	0	3	90	0.00	29.910 
16:00	73.2	73.2	73.2	63	59.8	1	3	90	0.00	29.907 
16:05	73.7	73.7	73.7	61	59.4	1	4	90	0.00	29.907 
16:10	73.9	73.9	73.9	62	60.0	1	3	112	0.00	29.907 
16:15	73.7	73.7	73.7	62	59.9	1	5	90	0.00	29.907 
16:20	73.5	73.5	73.5	61	59.2	1	4	90	0.00	29.907 
16:25	73.5	73.5	73.5	62	59.7	1	3	90	0.00	29.907 
16:30	73.5	73.5	73.5	60	58.7	2	5	90	0.00	29.905 
16:35	73.3	73.3	73.3	62	59.5	2	5	68	0.00	29.905 
16:40	73.2	73.2	73.2	63	59.8	0	3	68	0.00	29.905 
16:45	73.3	73.3	73.3	64	60.4	0	2	68	0.00	29.902 
16:50	73.7	73.7	73.7	62	59.9	1	2	22	0.00	29.902 
16:55	73.9	73.9	73.9	62	60.0	1	4	68	0.00	29.902 
17:00	73.7	73.7	73.7	62	59.9	1	4	68	0.00	29.903 
17:05	73.3	73.3	73.3	62	59.5	1	4	112	0.00	29.903 
17:10	73.5	73.5	73.5	63	60.1	1	3	135	0.00	29.903 
17:15	73.5	73.5	73.5	62	59.7	1	3	45	0.00	29.904 
17:20	73.3	73.3	73.3	62	59.5	0	2	22	0.00	29.904 
17:25	73.2	73.2	73.2	62	59.4	1	4	22	0.00	29.904 
17:30	72.8	72.8	72.8	63	59.5	1	3	90	0.00	29.909 
17:35	72.7	72.7	72.7	63	59.4	1	3	90	0.00	29.909 
17:40	72.5	72.5	72.5	62	58.7	2	4	90	0.00	29.909 
17:45	72.1	72.1	72.1	63	58.8	1	4	68	0.00	29.913 
17:50	71.8	71.8	71.8	64	59.0	0	2	68	0.00	29.913 
17:55	71.3	71.3	71.3	64	58.5	1	3	68	0.00	29.913 
18:00	70.9	70.9	70.9	64	58.1	0	3	135	0.00	29.915 
18:05	70.6	70.6	70.6	65	58.2	0	2	90	0.00	29.915 
18:10	70.3	70.3	70.3	65	58.0	0	2	90	0.00	29.915 
18:15	70.1	70.1	70.1	66	58.2	0	2	90	0.00	29.921 
18:20	69.9	69.9	69.9	66	58.0	0	3	90	0.00	29.921 
18:25	69.8	69.8	69.8	66	57.9	0	2	90	0.00	29.921 
18:30	69.8	69.8	69.8	67	58.3	0	2	112	0.00	29.924 
18:35	69.8	69.8	69.8	67	58.3	0	2	112	0.00	29.924 
18:40	69.8	69.8	69.8	67	58.3	0	2	112	0.00	29.924 
18:45	69.8	69.8	69.8	66	57.9	1	3	112	0.00	29.925 
18:50	69.6	69.6	69.6	67	58.1	0	3	112	0.00	29.925 
18:55	69.6	69.6	69.6	67	58.1	0	3	112	0.00	29.925 
19:00	69.4	69.4	69.4	68	58.4	0	1	112	0.00	29.929 
19:05	69.4	69.4	69.4	68	58.4	0	1	112	0.00	29.929 
19:10	69.3	69.3	69.3	69	58.7	0	2	112	0.00	29.929 
19:15	69.1	69.1	69.1	69	58.5	0	1	112	0.00	29.930 
19:20	68.9	68.9	68.9	70	58.7	0	0	---	0.00	29.930 
19:25	68.6	68.6	68.6	70	58.4	0	0	---	0.00	29.930 
19:30	68.4	68.4	68.4	71	58.6	0	0	---	0.00	29.932 
19:35	68.1	68.1	68.1	72	58.7	0	0	---	0.00	29.932 
19:40	67.9	67.9	67.9	72	58.5	0	0	---	0.00	29.932 
19:45	67.6	67.6	67.6	73	58.6	0	0	---	0.00	29.933 
19:50	67.4	67.4	67.4	73	58.4	0	0	---	0.00	29.933 
19:55	67.1	67.1	67.1	74	58.5	0	0	---	0.00	29.933 
20:00	66.8	66.8	66.8	74	58.2	0	0	---	0.00	29.936 
20:05	66.4	66.4	66.4	75	58.2	0	0	---	0.00	29.936 
20:10	66.1	66.1	66.1	76	58.3	0	0	---	0.00	29.936 
20:15	65.8	65.8	65.8	77	58.4	0	0	---	0.00	29.940 
20:20	65.5	65.5	65.5	78	58.5	0	0	---	0.00	29.940 
20:25	65.2	65.2	65.2	79	58.5	0	0	---	0.00	29.940 
20:30	64.8	64.8	64.8	80	58.5	0	0	---	0.00	29.944 
20:35	64.5	64.5	64.5	81	58.5	0	0	---	0.00	29.944 
20:40	64.2	64.2	64.2	81	58.2	0	0	---	0.00	29.944 
20:45	64.0	64.0	64.0	82	58.4	0	0	---	0.00	29.951 
20:50	63.7	63.7	63.7	83	58.4	0	0	---	0.00	29.951 
20:55	63.4	63.4	63.4	84	58.5	0	0	---	0.00	29.951 
21:00	63.2	63.2	63.2	84	58.3	0	0	---	0.00	29.957 
21:05	63.1	63.1	63.1	85	58.5	0	0	---	0.00	29.957 
21:10	62.7	62.7	62.7	86	58.4	0	0	---	0.00	29.957 
21:15	62.6	62.6	62.6	86	58.3	0	0	---	0.00	29.962 
21:20	62.3	62.3	62.3	87	58.4	0	0	---	0.00	29.962 
21:25	62.1	62.1	62.1	87	58.2	0	0	---	0.00	29.962 
21:30	62.0	62.0	62.0	88	58.4	0	0	---	0.00	29.962 
21:35	61.8	61.8	61.8	88	58.2	0	0	---	0.00	29.962 
21:40	61.6	61.6	61.6	88	58.0	0	0	---	0.00	29.962 
21:45	61.5	61.5	61.5	89	58.2	0	0	---	0.00	29.962 
21:50	61.3	61.3	61.3	89	58.0	0	0	---	0.00	29.962 
21:55	61.2	61.2	61.2	89	57.9	0	0	---	0.00	29.962 
22:00	61.2	61.2	61.2	90	58.2	0	0	---	0.00	29.963 
22:05	61.0	61.0	61.0	90	58.0	0	0	---	0.00	29.963 
22:10	60.9	60.9	60.9	90	57.9	0	0	---	0.00	29.963 
22:15	60.7	60.7	60.7	91	58.1	0	0	---	0.00	29.963 
22:20	60.7	60.7	60.7	91	58.1	0	0	---	0.00	29.963 
22:25	60.9	60.9	60.9	91	58.3	0	0	---	0.00	29.963 
22:30	60.9	60.9	60.9	92	58.6	0	0	---	0.00	29.959 
22:35	60.9	60.9	60.9	92	58.6	0	0	---	0.00	29.959 
22:40	60.9	60.9	60.9	92	58.6	0	0	---	0.00	29.959 
22:45	60.9	60.9	60.9	92	58.6	0	0	---	0.00	29.960 
22:50	60.9	60.9	60.9	92	58.6	0	0	---	0.00	29.960 
22:55	60.9	60.9	60.9	92	58.6	0	0	---	0.00	29.960 
23:00	60.9	60.9	60.9	92	58.6	0	0	---	0.00	29.959 
23:05	60.9	60.9	60.9	92	58.6	0	0	---	0.00	29.959 
23:10	60.9	60.9	60.9	92	58.6	0	0	---	0.00	29.959 
23:15	60.9	60.9	60.9	92	58.6	0	0	---	0.00	29.961 
23:20	61.0	61.0	61.0	92	58.7	0	0	---	0.00	29.961 
23:25	61.0	61.0	61.0	92	58.7	0	0	---	0.00	29.961 
23:30	61.2	61.2	61.2	93	59.2	0	0	---	0.00	29.964 
23:35	61.2	61.2	61.2	93	59.2	0	0	---	0.00	29.964 
23:40	61.2	61.2	61.2	93	59.2	0	0	---	0.00	29.964 
23:45	61.3	61.3	61.3	93	59.3	0	0	---	0.00	29.965 
23:50	61.3	61.3	61.3	93	59.3	0	0	---	0.00	29.965 
23:55	61.3	61.3	61.3	93	59.3	0	0	---	0.00	29.965 

CoCoRaHS
IN-AL-39
A2 Web Hosting
Creative Commons License
GoDaddy
search engine by freefind advanced

loaded 2018-11-12 20:02:26 • last modified 2010-11-18 10:43:29
Privacy PolicyDisclaimer
• wx.awcolley.com is powered by PmWiki v.2002016 •
• all content (unless otherwise noted) © 2018 A W Colley